Main page
METAR-TAF:

METAR-TAF

Airports :

Haugesund Airport. Karmøy

Haugesund, Norway

latitude: 59-21N, longitude: 005-13E, elevation: 2 m

Current weather observation

The report was made 43 minutes ago, at 17:20 UTC
Wind 21 kt from the North/Northwest
Temperature 16°C
Humidity 72%
Pressure 1015 hPa
Visibility 10 km or more
no clouds below 1500 m and no cumulonimbus

METAR: ENHD 231720Z 34021KT CAVOK 16/11 Q1015

Time: 20:03 (18:03 UTC)

Forecast

The report was made 7 hours and 3 minutes ago, at 11:00 UTC
Forecast valid from 23 at 12 UTC to 23 at 20 UTC
Wind 15 kt from the North/Northwest
Visibility 10 km or more
Few clouds at a height of 2000 ft
Becoming
from 23 at 12 UTC to 23 at 14 UTC
Wind 20 kt from the North/Northwest with gusts up to 32 kt

TAF: ENHD 231100Z 2312/2320 34015KT 9999 FEW020 BECMG 2312/2314 34020G32KT

Weather observations and forecasts of more than 4000 airports (METAR and TAF reports).

The available stations are represented by yellow and red dots on the map.

Hover mouse over dot to see the name of the station.

Then click to see weather observations and forecasts.

To change the map : click on the green buttons with a black cross to zoom in, on the green button with a dash to zoom out, or on the green arrows for adjacent maps.


METAR-TAF: